< < Back
Terminal Aerodrome Forecast


Current Version              Previous Versions:   1  2  3  4  5  6  7  8  9  

Terminal Aerodrome Forecast

525
FTUS42 KTAE 010521
TAFVLD
TAF
KVLD 010521Z 0106/0206 00000KT P6SM SCT100
     FM011000 00000KT 4SM BR SKC
     FM011300 15005KT P6SM FEW025
     FM011900 22005KT P6SM SCT040
     FM020200 00000KT P6SM FEW250=

Latest METAR

397
SAUS70 KWBC 010656
MTRVLD
METAR KVLD 010653Z AUTO 20003KT 10SM BKN100 22/20 A2995 RMK AO2 SLP149
T02220200


USA.gov is the U.S. government's official web portal to all federal, state and local government web resources and services.